createdAt,value
2023-04-04T00:01:11.288Z,43.30
2023-04-04T00:04:13.997Z,43.36
2023-04-04T00:07:16.307Z,43.16
2023-04-04T00:10:18.973Z,42.99
2023-04-04T00:13:21.282Z,43.39
2023-04-04T00:16:24.238Z,43.28
2023-04-04T00:19:28.225Z,43.05
2023-04-04T00:22:30.930Z,43.61
2023-04-04T00:25:33.205Z,43.60
2023-04-04T00:28:35.967Z,43.63
2023-04-04T00:31:38.404Z,43.58
2023-04-04T00:34:41.536Z,44.21
2023-04-04T00:37:43.876Z,44.02
2023-04-04T00:40:49.411Z,44.16
2023-04-04T00:43:51.783Z,44.36
2023-04-04T00:46:54.393Z,44.39
2023-04-04T00:49:56.916Z,44.24
2023-04-04T00:52:59.499Z,44.22
2023-04-04T00:56:02.195Z,44.19
2023-04-04T00:59:04.906Z,43.95
2023-04-04T01:02:08.408Z,44.01
2023-04-04T01:05:11.530Z,44.08
2023-04-04T01:08:16.990Z,44.29
2023-04-04T01:11:19.617Z,44.12
2023-04-04T01:14:23.516Z,44.56
2023-04-04T01:17:27.382Z,44.27
2023-04-04T01:20:32.500Z,44.51
2023-04-04T01:24:01.873Z,44.86
2023-04-04T01:27:05.536Z,44.66
2023-04-04T01:30:09.835Z,44.54
2023-04-04T01:33:25.545Z,45.11
2023-04-04T01:36:40.771Z,44.52
2023-04-04T01:39:54.128Z,45.12
2023-04-04T01:42:58.022Z,45.25
2023-04-04T01:46:01.389Z,45.63
2023-04-04T01:49:04.182Z,45.96
2023-04-04T01:52:07.435Z,46.11
2023-04-04T01:55:10.258Z,46.34
2023-04-04T01:58:13.096Z,46.21
2023-04-04T02:01:16.057Z,46.61
2023-04-04T02:04:18.739Z,47.27
2023-04-04T02:07:21.126Z,47.57
2023-04-04T02:10:24.212Z,46.99
2023-04-04T02:13:27.431Z,46.73
2023-04-04T02:16:30.636Z,46.48
2023-04-04T02:19:33.666Z,46.57
2023-04-04T02:22:36.388Z,46.14
2023-04-04T02:25:38.762Z,46.27
2023-04-04T02:28:41.370Z,46.52
2023-04-04T02:31:46.003Z,46.30
2023-04-04T02:34:48.731Z,46.44
2023-04-04T02:37:51.285Z,46.84
2023-04-04T02:40:54.588Z,46.78
2023-04-04T02:43:56.945Z,47.19
2023-04-04T02:46:59.599Z,46.79
2023-04-04T02:50:03.775Z,47.03
2023-04-04T02:53:07.184Z,47.16
2023-04-04T02:56:09.680Z,47.71
2023-04-04T02:59:12.672Z,47.73
2023-04-04T03:02:15.230Z,47.63
2023-04-04T03:05:18.028Z,47.79
2023-04-04T03:08:20.438Z,47.93
2023-04-04T03:11:23.460Z,47.88
2023-04-04T03:14:26.780Z,47.83
2023-04-04T03:17:30.399Z,48.13
2023-04-04T03:20:33.138Z,48.26
2023-04-04T03:23:35.754Z,48.28
2023-04-04T03:26:39.075Z,48.50
2023-04-04T03:29:42.832Z,48.57
2023-04-04T03:32:45.487Z,48.54
2023-04-04T03:35:48.181Z,48.58
2023-04-04T03:38:50.757Z,48.88
2023-04-04T03:41:53.384Z,49.42
2023-04-04T03:44:55.910Z,49.17
2023-04-04T03:48:00.938Z,49.25
2023-04-04T03:51:05.262Z,48.92
2023-04-04T03:54:07.902Z,48.89
2023-04-04T03:57:10.208Z,48.88
2023-04-04T04:00:13.177Z,48.85
2023-04-04T04:03:16.981Z,48.88
2023-04-04T04:06:21.574Z,49.28
2023-04-04T04:09:23.989Z,48.99
2023-04-04T04:12:27.155Z,49.01
2023-04-04T04:15:29.587Z,48.82
2023-04-04T04:18:32.868Z,48.58
2023-04-04T04:21:35.865Z,48.85
2023-04-04T04:24:38.748Z,48.90
2023-04-04T04:27:41.651Z,48.93
2023-04-04T04:30:44.904Z,48.64
2023-04-04T04:33:48.744Z,48.15
2023-04-04T04:36:53.872Z,48.60
2023-04-04T04:39:57.343Z,48.20
2023-04-04T04:43:01.447Z,47.77
2023-04-04T04:46:06.328Z,47.23
2023-04-04T04:49:08.960Z,46.99
2023-04-04T04:52:11.408Z,47.02
2023-04-04T04:55:18.450Z,47.10
2023-04-04T04:58:24.166Z,47.26
2023-04-04T05:01:28.636Z,47.38
2023-04-04T05:04:31.641Z,47.24
2023-04-04T05:07:35.359Z,47.15
2023-04-04T05:10:39.029Z,46.90
2023-04-04T05:13:42.548Z,46.81
2023-04-04T05:16:46.869Z,46.91
2023-04-04T05:19:50.470Z,46.87
2023-04-04T05:22:54.402Z,46.63
2023-04-04T05:25:57.569Z,48.64
2023-04-04T05:29:00.894Z,46.49
2023-04-04T05:32:04.263Z,45.95
2023-04-04T05:35:08.115Z,46.02
2023-04-04T05:38:11.250Z,46.22
2023-04-04T05:41:13.990Z,46.33
2023-04-04T05:44:40.480Z,46.67
2023-04-04T05:47:52.028Z,46.72
2023-04-04T05:50:55.660Z,46.91
2023-04-04T05:53:59.009Z,46.54
2023-04-04T05:57:02.228Z,46.48
2023-04-04T06:00:09.663Z,46.83
2023-04-04T06:03:18.451Z,46.85
2023-04-04T06:06:24.065Z,46.41
2023-04-04T06:09:27.388Z,45.98
2023-04-04T06:12:30.229Z,45.39
2023-04-04T06:15:33.180Z,45.19
2023-04-04T06:18:36.188Z,45.33
2023-04-04T06:21:38.548Z,45.11
2023-04-04T06:24:41.478Z,44.93
2023-04-04T06:27:44.129Z,44.20
2023-04-04T06:30:47.022Z,43.31
2023-04-04T06:33:50.416Z,43.31
2023-04-04T06:36:53.626Z,43.46
2023-04-04T06:39:57.001Z,43.25
2023-04-04T06:43:00.080Z,43.14
2023-04-04T06:46:03.415Z,42.18
2023-04-04T06:49:06.648Z,41.26
2023-04-04T06:52:09.087Z,40.57
2023-04-04T06:55:13.184Z,41.15
2023-04-04T06:58:15.525Z,41.20
2023-04-04T07:01:18.221Z,40.68
2023-04-04T07:04:20.730Z,41.07
2023-04-04T07:07:23.386Z,41.20
2023-04-04T07:10:26.131Z,41.32
2023-04-04T07:13:28.931Z,41.30
2023-04-04T07:16:31.869Z,41.96
2023-04-04T07:19:34.571Z,41.53
2023-04-04T07:22:41.124Z,41.69
2023-04-04T07:25:44.496Z,41.55
2023-04-04T07:28:46.960Z,41.52
2023-04-04T07:31:50.440Z,41.74
2023-04-04T07:34:52.845Z,41.18
2023-04-04T07:37:55.621Z,41.20
2023-04-04T07:40:58.042Z,41.97
2023-04-04T07:44:00.798Z,41.52
2023-04-04T07:47:09.920Z,40.36
2023-04-04T07:50:14.034Z,39.60
2023-04-04T07:53:16.478Z,38.66
2023-04-04T07:56:19.147Z,38.52
2023-04-04T07:59:21.643Z,38.56
2023-04-04T08:02:24.475Z,38.15
2023-04-04T08:05:27.386Z,38.36
2023-04-04T08:08:29.877Z,37.78
2023-04-04T08:11:32.524Z,37.89
2023-04-04T08:14:34.960Z,37.73
2023-04-04T08:17:38.432Z,38.12
2023-04-04T08:20:41.760Z,38.26
2023-04-04T08:23:45.256Z,37.83
2023-04-04T08:26:51.773Z,37.36
2023-04-04T08:30:05.565Z,37.16
2023-04-04T08:33:07.982Z,36.96
2023-04-04T08:36:10.723Z,36.79
2023-04-04T08:39:13.605Z,36.62
2023-04-04T08:42:20.569Z,36.19
2023-04-04T08:45:24.692Z,36.63
2023-04-04T08:48:30.271Z,36.14
2023-04-04T08:51:34.556Z,36.37
2023-04-04T08:54:39.982Z,35.71
2023-04-04T08:57:43.454Z,35.62
2023-04-04T09:00:46.176Z,36.35
2023-04-04T09:03:50.383Z,36.13
2023-04-04T09:06:53.677Z,35.98
2023-04-04T09:09:57.435Z,35.96
2023-04-04T09:13:12.485Z,35.24
2023-04-04T09:16:17.949Z,35.13
2023-04-04T09:19:20.758Z,35.48
2023-04-04T09:22:23.091Z,35.43
2023-04-04T09:25:25.896Z,35.65
2023-04-04T09:28:28.228Z,35.88
2023-04-04T09:31:31.016Z,35.57
2023-04-04T09:34:33.912Z,35.41
2023-04-04T09:37:37.059Z,35.39
2023-04-04T09:40:42.348Z,35.38
2023-04-04T09:43:45.772Z,35.09
2023-04-04T09:46:52.114Z,35.54
2023-04-04T09:49:59.165Z,35.33
2023-04-04T09:53:01.638Z,34.71
2023-04-04T09:56:04.616Z,34.32
2023-04-04T09:59:09.993Z,34.47
2023-04-04T10:02:13.690Z,34.07
2023-04-04T10:05:16.794Z,33.93
2023-04-04T10:08:22.245Z,33.64
2023-04-04T10:11:33.721Z,33.16
2023-04-04T10:14:36.902Z,32.64
2023-04-04T10:17:41.840Z,32.92
2023-04-04T10:20:44.545Z,33.50
2023-04-04T10:23:48.640Z,33.06
2023-04-04T10:26:51.102Z,33.60
2023-04-04T10:29:53.885Z,33.62
2023-04-04T10:33:05.102Z,32.82
2023-04-04T10:36:09.669Z,32.90
2023-04-04T10:39:18.724Z,32.91
2023-04-04T10:42:23.548Z,32.57
2023-04-04T10:45:26.757Z,32.76
2023-04-04T10:48:29.610Z,32.24
2023-04-04T10:51:35.360Z,32.74
2023-04-04T10:54:43.961Z,32.43
2023-04-04T10:57:52.075Z,31.91
2023-04-04T11:00:56.852Z,31.50
2023-04-04T11:04:22.061Z,31.42
2023-04-04T11:07:29.183Z,31.02
2023-04-04T11:10:36.791Z,30.84
2023-04-04T11:13:41.489Z,31.34
2023-04-04T11:16:46.834Z,30.92
2023-04-04T11:19:59.990Z,30.82
2023-04-04T11:23:05.887Z,30.10
2023-04-04T11:26:09.050Z,29.58
2023-04-04T11:29:21.165Z,29.56
2023-04-04T11:32:35.499Z,28.68
2023-04-04T11:35:39.917Z,29.82
2023-04-04T11:38:50.359Z,30.09
2023-04-04T11:41:59.701Z,29.53
2023-04-04T11:45:04.974Z,30.40
2023-04-04T11:48:09.179Z,30.26
2023-04-04T11:51:12.130Z,30.33
2023-04-04T11:54:17.841Z,29.57
2023-04-04T11:57:21.871Z,29.15
2023-04-04T12:00:32.771Z,29.67
2023-04-04T12:03:35.620Z,29.51
2023-04-04T12:06:38.977Z,28.88
2023-04-04T12:09:42.485Z,28.58
2023-04-04T12:12:47.718Z,28.75
2023-04-04T12:15:50.641Z,29.28
2023-04-04T12:18:53.575Z,30.10
2023-04-04T12:21:57.805Z,29.86
2023-04-04T12:25:00.230Z,29.65
2023-04-04T12:28:04.796Z,29.82
2023-04-04T12:31:08.013Z,29.75
2023-04-04T12:37:33.267Z,28.96
2023-04-04T12:40:38.353Z,29.10
2023-04-04T12:43:41.776Z,29.35
2023-04-04T12:46:47.281Z,29.04
2023-04-04T12:49:54.809Z,28.50
2023-04-04T12:53:14.010Z,28.76
2023-04-04T12:56:27.485Z,28.63
2023-04-04T12:59:31.887Z,28.73
2023-04-04T13:02:36.361Z,28.87
2023-04-04T13:05:39.318Z,29.19
2023-04-04T13:08:53.008Z,28.62
2023-04-04T13:12:00.434Z,28.83
2023-04-04T13:15:07.024Z,28.53
2023-04-04T13:18:18.285Z,28.51
2023-04-04T13:21:20.940Z,28.29
2023-04-04T13:24:23.623Z,28.72
2023-04-04T13:27:28.557Z,28.28
2023-04-04T13:30:31.716Z,28.52
2023-04-04T13:33:34.744Z,29.09
2023-04-04T13:36:37.573Z,29.25
2023-04-04T13:39:40.000Z,28.88
2023-04-04T13:42:42.740Z,28.63
2023-04-04T13:45:45.316Z,28.92
2023-04-04T13:48:48.381Z,28.22
2023-04-04T13:51:51.063Z,27.57
2023-04-04T13:54:53.726Z,27.96
2023-04-04T13:57:56.315Z,28.23
2023-04-04T14:01:02.925Z,28.74
2023-04-04T14:04:13.323Z,28.69
2023-04-04T14:07:22.951Z,27.73
2023-04-04T14:10:25.688Z,27.85
2023-04-04T14:13:29.910Z,27.87
2023-04-04T14:16:32.886Z,28.16
2023-04-04T14:19:35.374Z,27.84
2023-04-04T14:22:38.115Z,27.88
2023-04-04T14:25:40.632Z,28.05
2023-04-04T14:28:43.596Z,28.11
2023-04-04T14:31:46.107Z,28.23
2023-04-04T14:34:48.955Z,28.22
2023-04-04T14:37:51.358Z,27.55
2023-04-04T14:40:53.975Z,27.22
2023-04-04T14:43:56.392Z,27.79
2023-04-04T14:46:59.235Z,28.26
2023-04-04T14:50:01.801Z,29.10
2023-04-04T14:53:04.603Z,29.52
2023-04-04T14:56:07.900Z,28.70
2023-04-04T14:59:10.734Z,28.88
2023-04-04T15:02:13.141Z,28.98
2023-04-04T15:05:16.437Z,29.16
2023-04-04T15:08:19.826Z,29.20
2023-04-04T15:11:22.978Z,29.67
2023-04-04T15:14:25.459Z,29.82
2023-04-04T15:17:28.119Z,30.01
2023-04-04T15:20:30.564Z,30.06
2023-04-04T15:23:33.498Z,30.14
2023-04-04T15:26:35.928Z,30.10
2023-04-04T15:29:38.538Z,29.94
2023-04-04T15:32:40.910Z,30.16
2023-04-04T15:35:43.696Z,30.25
2023-04-04T15:38:46.292Z,30.39
2023-04-04T15:41:49.006Z,30.54
2023-04-04T15:44:51.324Z,30.69
2023-04-04T15:47:54.007Z,31.17
2023-04-04T15:51:02.377Z,31.46
2023-04-04T15:54:05.552Z,31.27
2023-04-04T15:57:07.828Z,31.42
2023-04-04T16:00:11.562Z,31.19
2023-04-04T16:03:14.585Z,31.46
2023-04-04T16:06:17.015Z,31.60
2023-04-04T16:09:21.328Z,31.80
2023-04-04T16:12:23.779Z,31.95
2023-04-04T16:15:27.132Z,32.08
2023-04-04T16:18:29.685Z,32.08
2023-04-04T16:21:32.717Z,32.36
2023-04-04T16:24:35.143Z,32.13
2023-04-04T16:27:37.810Z,32.31
2023-04-04T16:30:41.119Z,32.24
2023-04-04T16:33:44.083Z,32.35
2023-04-04T16:36:46.593Z,32.66
2023-04-04T16:39:50.932Z,32.77
2023-04-04T16:42:53.250Z,32.93
2023-04-04T16:45:55.915Z,32.92
2023-04-04T16:48:58.236Z,33.05
2023-04-04T16:52:00.877Z,32.89
2023-04-04T16:55:03.292Z,33.15
2023-04-04T16:58:06.048Z,33.34
2023-04-04T17:01:08.649Z,33.49
2023-04-04T17:04:11.417Z,33.47
2023-04-04T17:07:13.874Z,33.64
2023-04-04T17:10:16.643Z,33.74
2023-04-04T17:13:19.282Z,33.70
2023-04-04T17:16:23.444Z,33.68
2023-04-04T17:19:30.332Z,33.83
2023-04-04T17:22:33.026Z,33.81
2023-04-04T17:25:35.348Z,34.13
2023-04-04T17:28:38.132Z,33.77
2023-04-04T17:31:41.541Z,33.65
2023-04-04T17:34:44.832Z,33.58
2023-04-04T17:37:47.172Z,33.43
2023-04-04T17:40:49.961Z,33.64
2023-04-04T17:43:52.275Z,33.34
2023-04-04T17:46:55.425Z,33.85
2023-04-04T17:49:57.841Z,33.76
2023-04-04T17:53:01.982Z,33.93
2023-04-04T17:56:04.509Z,33.96
2023-04-04T17:59:07.763Z,33.63
2023-04-04T18:02:10.944Z,33.84
2023-04-04T18:05:14.824Z,33.87
2023-04-04T18:08:17.266Z,33.91
2023-04-04T18:11:19.968Z,34.02
2023-04-04T18:14:22.346Z,34.03
2023-04-04T18:17:25.774Z,33.99
2023-04-04T18:20:35.011Z,33.78
2023-04-04T18:23:45.113Z,33.94
2023-04-04T18:26:47.458Z,34.18
2023-04-04T18:29:50.266Z,34.45
2023-04-04T18:32:52.749Z,34.51
2023-04-04T18:35:55.511Z,34.99
2023-04-04T18:38:57.992Z,35.32
2023-04-04T18:42:03.019Z,35.67
2023-04-04T18:45:08.193Z,35.72
2023-04-04T18:48:12.677Z,36.12
2023-04-04T18:51:15.074Z,36.48
2023-04-04T18:54:17.824Z,36.87
2023-04-04T18:57:20.361Z,36.94
2023-04-04T19:00:23.625Z,37.33
2023-04-04T19:03:26.691Z,37.50
2023-04-04T19:06:32.085Z,37.38
2023-04-04T19:09:36.581Z,37.95
2023-04-04T19:12:39.311Z,38.21
2023-04-04T19:15:42.719Z,38.22
2023-04-04T19:18:45.379Z,38.18
2023-04-04T19:21:47.877Z,38.35
2023-04-04T19:24:50.695Z,38.62
2023-04-04T19:27:53.106Z,38.46
2023-04-04T19:30:55.864Z,38.47
2023-04-04T19:33:58.882Z,38.57
2023-04-04T19:37:01.697Z,38.57
2023-04-04T19:40:15.798Z,38.73
2023-04-04T19:43:21.380Z,38.89
2023-04-04T19:46:29.212Z,38.92
2023-04-04T19:49:33.583Z,39.16
2023-04-04T19:52:36.772Z,38.94
2023-04-04T19:55:40.390Z,39.09
2023-04-04T19:58:43.472Z,39.01
2023-04-04T20:04:53.983Z,39.73
2023-04-04T20:07:56.381Z,40.15
2023-04-04T20:10:59.280Z,40.99
2023-04-04T20:14:09.296Z,40.87
2023-04-04T20:17:11.929Z,41.47
2023-04-04T20:20:54.438Z,41.38
2023-04-04T20:23:59.605Z,41.47
2023-04-04T20:27:03.080Z,41.54
2023-04-04T20:30:11.685Z,41.68
2023-04-04T20:33:39.425Z,41.46
2023-04-04T20:36:42.899Z,41.73
2023-04-04T20:39:59.985Z,41.42
2023-04-04T20:43:02.659Z,41.83
2023-04-04T20:46:05.064Z,41.69
2023-04-04T20:49:07.782Z,41.58
2023-04-04T20:52:23.078Z,41.47
2023-04-04T20:55:31.614Z,41.55
2023-04-04T20:58:34.182Z,41.86
2023-04-04T21:01:36.893Z,41.88
2023-04-04T21:04:41.321Z,41.69
2023-04-04T21:07:44.031Z,41.89
2023-04-04T21:10:50.958Z,41.97
2023-04-04T21:13:54.709Z,41.93
2023-04-04T21:16:57.228Z,41.68
2023-04-04T21:19:59.832Z,41.90
2023-04-04T21:23:02.172Z,42.00
2023-04-04T21:26:08.329Z,42.16
2023-04-04T21:29:26.187Z,42.03
2023-04-04T21:32:29.677Z,42.05
2023-04-04T21:35:46.889Z,42.35
2023-04-04T21:38:50.155Z,42.17
2023-04-04T21:42:03.282Z,42.64
2023-04-04T21:45:07.795Z,42.36
2023-04-04T21:48:10.081Z,42.30
2023-04-04T21:51:12.729Z,42.63
2023-04-04T21:54:15.141Z,42.45
2023-04-04T21:57:17.743Z,42.38
2023-04-04T22:00:20.176Z,42.49
2023-04-04T22:03:22.923Z,42.72
2023-04-04T22:06:26.444Z,42.99
2023-04-04T22:09:29.753Z,43.00
2023-04-04T22:12:33.219Z,43.65
2023-04-04T22:15:42.717Z,43.92
2023-04-04T22:18:52.037Z,43.69
2023-04-04T22:21:55.188Z,44.05
2023-04-04T22:25:04.907Z,44.04
2023-04-04T22:28:08.923Z,43.97
2023-04-04T22:31:11.645Z,44.31
2023-04-04T22:34:15.423Z,44.21
2023-04-04T22:37:20.251Z,44.28
2023-04-04T22:40:23.024Z,44.44
2023-04-04T22:43:26.054Z,44.68
2023-04-04T22:46:29.423Z,44.62
2023-04-04T22:49:38.473Z,44.91
2023-04-04T22:52:43.849Z,45.10
2023-04-04T22:55:46.356Z,44.91
2023-04-04T22:58:48.993Z,45.32
2023-04-04T23:01:51.533Z,45.30
2023-04-04T23:04:54.146Z,45.23
2023-04-04T23:08:01.938Z,45.43
2023-04-04T23:11:04.566Z,45.66
2023-04-04T23:14:15.108Z,45.54
2023-04-04T23:17:17.950Z,45.42
2023-04-04T23:20:20.316Z,45.30
2023-04-04T23:23:23.034Z,44.79
2023-04-04T23:26:25.472Z,44.89
2023-04-04T23:29:28.041Z,45.15
2023-04-04T23:32:33.624Z,44.99
2023-04-04T23:35:36.308Z,45.12
2023-04-04T23:38:38.632Z,45.07
2023-04-04T23:41:41.285Z,45.36
2023-04-04T23:44:43.681Z,45.58
2023-04-04T23:47:46.485Z,45.78
2023-04-04T23:50:50.131Z,45.61
2023-04-04T23:53:52.856Z,45.74
2023-04-04T23:56:56.136Z,45.78
2023-04-04T23:59:58.778Z,45.70
